Ira, TX (79527)

2:53 AM CST on February 13, 2016 (GMT -0600)
WT_Meso | | Change Station
CLOSE
Current Station
Personal Weather Station
Location: Snyder, TX
Elevation: 2431 ft
Nearby Weather Stations

Elev 2431 ft 32.72 °N, 100.86 °W | Updated 28 minutes ago

Clear
Clear
43 °F
Feels Like 38 °F
N
9
Wind Variable Wind from ENE
Gusts 11.0 mph

Today
High -- | Low -- °F
--% Chance of Precip.
Yesterday
High -- | Low -- °F
Precip. -- in
Pressure 30.36 in
Visibility 10.0 miles
Clouds Clear
Windchill 38 °F
Dew Point 33 °F
Humidity 68%
Rainfall in
Snow Depth Not available.
7:29 AM 6:27 PM
Waxing Crescent, 28% visible
METAR KSWW 130835Z AUTO 06004KT 10SM CLR 08/01 A3036 RMK AO2 T00810005
Pressure 30.36 in
Visibility 10.0 miles
Clouds Clear
Windchill 38 °F
Dew Point 33 °F
Humidity 68%
Rainfall in
Snow Depth Not available.
7:29 AM 6:27 PM
Waxing Crescent, 28% visible
METAR KSWW 130835Z AUTO 06004KT 10SM CLR 08/01 A3036 RMK AO2 T00810005

10-Day Weather Forecast

Almanac

Astronomy

Feb. 13, 2016 Rise Set
Actual Time
Civil Twilight
Nautical Twilight
Astronomical Twilight
Moon
Length of Visible Light
Length of Day
Tomorrow will be .
, % of the Moon is Illuminated

Today's Extremes

State Highs State Lows

Community

WunderPhotos

Upload Photos

1,892,536 photos uploaded!

WunderBlog® & News

Nearby

Air Quality

  Air Quality AQ Index Pollutant
Not available.

Snow Depth

Station Depth Elevation

Earthquake Activity

City Distance Mag. Time & Date
Minimum magnitude displayed is 2.5.

Coastal Water Temperatures

Place Temperature

Stations

Nearby Weather Stations

Station Location Temp. Windchill Dew Point Humidity Wind Precip. Elev Updated Type
                   

Watches & Warnings

There are currently no watches in effect.